Hawkins, Texas
Current Conditions -  °F | °C
As of 12:53 AM on Sunday 23 Nov 2014 (Local Time) from KTYR Reporting Station
Light Rain Light Rain  
Wind Chill: 61°   Ceiling: 11000
Heat Index: 61°   Visibility: 10mi
Dew Point: 58°   Wind: 7mph
Humidity: 90%   Direction: 150°SSE
Pressure: 29.66"   Gusts: NA
Location:  32.59°N, 95.2°W
Report Text: KTYR 230653Z AUTO 15006KT 10SM -RA BKN110 16/14 A2966 RMK AO2 RAE07B24 SLP038 P0001 T01610144
Loading
Personal Weather Stations






























Interactive Weather Map New forecast layout! Learn more

10-Day Weather Forecast

Advertisements
Track Severe Weather on mobile